createdAt,value
2018-02-17T00:00:41.344Z,4.45
2018-02-17T00:03:09.262Z,4.43
2018-02-17T00:05:37.206Z,4.43
2018-02-17T00:08:05.257Z,4.46
2018-02-17T00:10:33.171Z,4.42
2018-02-17T00:13:01.288Z,4.47
2018-02-17T00:15:29.368Z,4.51
2018-02-17T00:17:57.323Z,4.49
2018-02-17T00:20:25.360Z,4.51
2018-02-17T00:22:53.291Z,4.56
2018-02-17T00:25:21.234Z,4.58
2018-02-17T00:27:49.239Z,4.52
2018-02-17T00:30:17.181Z,4.56
2018-02-17T00:32:45.099Z,4.62
2018-02-17T00:35:13.026Z,4.53
2018-02-17T00:37:40.954Z,4.57
2018-02-17T00:40:08.889Z,4.56
2018-02-17T00:42:36.916Z,4.54
2018-02-17T00:45:04.917Z,4.49
2018-02-17T00:47:32.843Z,4.49
2018-02-17T00:50:00.791Z,4.46
2018-02-17T00:52:28.724Z,4.48
2018-02-17T00:54:56.650Z,4.58
2018-02-17T00:57:24.627Z,4.63
2018-02-17T00:59:52.534Z,4.53
2018-02-17T01:02:20.498Z,4.34
2018-02-17T01:04:48.437Z,4.47
2018-02-17T01:07:16.505Z,4.41
2018-02-17T01:09:44.493Z,4.49
2018-02-17T01:12:12.414Z,4.53
2018-02-17T01:14:40.334Z,4.56
2018-02-17T01:17:08.304Z,4.61
2018-02-17T01:19:36.229Z,4.47
2018-02-17T01:22:04.176Z,4.56
2018-02-17T01:24:32.169Z,4.60
2018-02-17T01:27:00.107Z,4.47
2018-02-17T01:29:28.213Z,4.38
2018-02-17T01:31:56.164Z,4.42
2018-02-17T01:34:24.171Z,4.50
2018-02-17T01:36:52.083Z,4.51
2018-02-17T01:39:20.047Z,4.50
2018-02-17T01:41:47.984Z,4.50
2018-02-17T01:44:15.926Z,4.39
2018-02-17T01:46:43.839Z,4.48
2018-02-17T01:49:11.795Z,4.51
2018-02-17T01:51:39.730Z,4.61
2018-02-17T01:54:07.667Z,4.51
2018-02-17T01:56:35.669Z,4.48
2018-02-17T01:59:03.606Z,4.33
2018-02-17T02:01:31.642Z,4.32
2018-02-17T02:03:59.545Z,4.48
2018-02-17T02:06:27.602Z,4.28
2018-02-17T02:08:55.655Z,4.46
2018-02-17T02:11:23.755Z,4.30
2018-02-17T02:13:51.744Z,4.33
2018-02-17T02:16:19.815Z,4.29
2018-02-17T02:18:47.799Z,4.27
2018-02-17T02:21:15.719Z,4.21
2018-02-17T02:23:43.646Z,4.14
2018-02-17T02:26:11.627Z,4.26
2018-02-17T02:28:39.582Z,4.19
2018-02-17T02:31:07.534Z,4.24
2018-02-17T02:33:35.449Z,4.16
2018-02-17T02:36:03.531Z,4.22
2018-02-17T02:38:31.575Z,4.14
2018-02-17T02:40:59.539Z,4.12
2018-02-17T02:43:27.454Z,4.15
2018-02-17T02:45:55.366Z,4.16
2018-02-17T02:48:23.348Z,4.19
2018-02-17T02:50:51.722Z,4.19
2018-02-17T02:53:19.792Z,4.23
2018-02-17T02:55:47.695Z,4.20
2018-02-17T02:58:15.813Z,4.15
2018-02-17T03:00:43.733Z,4.17
2018-02-17T03:03:11.698Z,4.15
2018-02-17T03:05:39.626Z,4.13
2018-02-17T03:08:07.610Z,4.04
2018-02-17T03:10:35.602Z,4.06
2018-02-17T03:13:03.535Z,4.15
2018-02-17T03:15:31.478Z,4.09
2018-02-17T03:17:59.404Z,4.14
2018-02-17T03:20:27.318Z,4.16
2018-02-17T03:22:55.266Z,4.08
2018-02-17T03:25:23.396Z,4.12
2018-02-17T03:27:51.287Z,4.14
2018-02-17T03:30:19.222Z,4.22
2018-02-17T03:32:47.135Z,4.12
2018-02-17T03:35:15.059Z,4.14
2018-02-17T03:37:43.126Z,4.00
2018-02-17T03:40:11.807Z,4.18
2018-02-17T03:42:39.778Z,4.16
2018-02-17T03:45:07.773Z,4.20
2018-02-17T03:47:35.746Z,4.14
2018-02-17T03:50:03.646Z,4.18
2018-02-17T03:52:31.560Z,4.16
2018-02-17T03:54:59.486Z,4.20
2018-02-17T03:57:27.406Z,4.22
2018-02-17T03:59:55.418Z,4.15
2018-02-17T04:02:23.335Z,4.17
2018-02-17T04:04:51.244Z,4.10
2018-02-17T04:07:19.168Z,4.17
2018-02-17T04:09:47.088Z,4.10
2018-02-17T04:12:15.226Z,4.03
2018-02-17T04:14:43.133Z,4.08
2018-02-17T04:17:11.087Z,4.09
2018-02-17T04:19:39.221Z,4.03
2018-02-17T04:22:07.129Z,4.17
2018-02-17T04:24:35.226Z,4.01
2018-02-17T04:27:03.153Z,4.05
2018-02-17T04:29:31.206Z,4.19
2018-02-17T04:31:59.238Z,4.05
2018-02-17T04:34:27.164Z,4.09
2018-02-17T04:36:55.103Z,4.14
2018-02-17T04:39:23.051Z,4.17
2018-02-17T04:41:56.651Z,4.21
2018-02-17T04:44:26.458Z,4.10
2018-02-17T04:46:55.002Z,4.07
2018-02-17T04:49:26.463Z,4.06
2018-02-17T04:55:09.429Z,4.04
2018-02-17T04:57:55.188Z,4.14
2018-02-17T05:00:23.110Z,4.05
2018-02-17T05:02:56.681Z,4.07
2018-02-17T05:05:40.283Z,4.02
2018-02-17T05:08:13.985Z,4.13
2018-02-17T05:10:41.920Z,3.93
2018-02-17T05:13:09.819Z,3.97
2018-02-17T05:15:52.610Z,3.98
2018-02-17T05:18:21.463Z,3.91
2018-02-17T05:20:49.881Z,4.08
2018-02-17T05:23:17.814Z,4.02
2018-02-17T05:25:47.273Z,3.98
2018-02-17T05:28:18.606Z,4.03
2018-02-17T05:30:47.935Z,4.08
2018-02-17T05:33:21.424Z,4.04
2018-02-17T05:35:54.885Z,4.10
2018-02-17T05:38:22.825Z,4.06
2018-02-17T05:40:56.411Z,4.00
2018-02-17T05:43:24.337Z,3.87
2018-02-17T05:46:08.150Z,3.92
2018-02-17T05:48:37.742Z,3.92
2018-02-17T05:51:05.639Z,3.94
2018-02-17T05:53:33.562Z,3.99
2018-02-17T05:56:01.496Z,3.98
2018-02-17T05:58:29.419Z,4.01
2018-02-17T06:00:57.348Z,4.04
2018-02-17T06:03:25.981Z,3.97
2018-02-17T06:05:53.914Z,4.03
2018-02-17T06:08:21.869Z,3.89
2018-02-17T06:10:49.818Z,3.97
2018-02-17T06:13:17.734Z,3.97
2018-02-17T06:15:45.726Z,3.91
2018-02-17T06:18:14.042Z,3.93
2018-02-17T06:20:42.155Z,3.91
2018-02-17T06:23:10.075Z,3.84
2018-02-17T06:25:38.006Z,3.87
2018-02-17T06:28:05.915Z,3.86
2018-02-17T06:30:33.858Z,3.80
2018-02-17T06:33:01.998Z,3.94
2018-02-17T06:35:29.974Z,3.87
2018-02-17T06:37:57.886Z,3.86
2018-02-17T06:40:25.822Z,3.84
2018-02-17T06:42:53.934Z,3.76
2018-02-17T06:45:21.936Z,3.86
2018-02-17T06:47:49.864Z,3.87
2018-02-17T06:50:17.799Z,3.95
2018-02-17T06:52:45.769Z,3.83
2018-02-17T06:55:13.689Z,3.73
2018-02-17T06:57:41.669Z,3.79
2018-02-17T07:00:09.599Z,3.72
2018-02-17T07:02:37.534Z,3.78
2018-02-17T07:05:05.490Z,3.87
2018-02-17T07:07:33.724Z,3.92
2018-02-17T07:10:01.642Z,3.92
2018-02-17T07:12:29.581Z,4.00
2018-02-17T07:14:57.498Z,4.02
2018-02-17T07:17:25.430Z,3.98
2018-02-17T07:19:53.539Z,4.08
2018-02-17T07:22:21.493Z,4.10
2018-02-17T07:24:49.445Z,4.24
2018-02-17T07:27:17.451Z,4.20
2018-02-17T07:29:45.432Z,4.39
2018-02-17T07:32:13.372Z,4.16
2018-02-17T07:34:41.302Z,4.30
2018-02-17T07:37:09.750Z,4.50
2018-02-17T07:39:37.660Z,4.21
2018-02-17T07:42:05.590Z,4.08
2018-02-17T07:44:33.543Z,4.28
2018-02-17T07:47:01.482Z,4.21
2018-02-17T07:49:29.410Z,4.21
2018-02-17T07:51:57.399Z,4.19
2018-02-17T07:54:25.370Z,4.22
2018-02-17T07:56:53.416Z,4.24
2018-02-17T07:59:21.339Z,4.19
2018-02-17T08:01:49.362Z,4.27
2018-02-17T08:04:17.283Z,4.19
2018-02-17T08:06:45.194Z,4.20
2018-02-17T08:09:14.049Z,4.26
2018-02-17T08:11:41.964Z,4.22
2018-02-17T08:14:09.940Z,4.27
2018-02-17T08:16:37.870Z,4.26
2018-02-17T08:19:05.798Z,4.34
2018-02-17T08:21:34.367Z,4.48
2018-02-17T08:24:02.299Z,4.44
2018-02-17T08:26:30.245Z,4.45
2018-02-17T08:28:58.219Z,4.51
2018-02-17T08:31:26.217Z,4.52
2018-02-17T08:33:54.146Z,4.45
2018-02-17T08:36:22.068Z,4.58
2018-02-17T08:38:49.973Z,4.69
2018-02-17T08:41:17.906Z,4.64
2018-02-17T08:43:45.907Z,4.69
2018-02-17T08:46:13.985Z,4.77
2018-02-17T08:48:41.893Z,4.81
2018-02-17T08:51:09.887Z,4.89
2018-02-17T08:53:37.810Z,4.95
2018-02-17T08:56:05.842Z,4.84
2018-02-17T08:58:33.866Z,4.97
2018-02-17T09:01:01.782Z,4.92
2018-02-17T09:03:29.870Z,4.95
2018-02-17T09:05:57.776Z,5.04
2018-02-17T09:08:25.763Z,5.16
2018-02-17T09:10:53.758Z,5.27
2018-02-17T09:13:21.685Z,5.12
2018-02-17T09:15:49.638Z,5.21
2018-02-17T09:18:17.563Z,5.28
2018-02-17T09:20:45.490Z,5.31
2018-02-17T09:23:13.442Z,5.18
2018-02-17T09:25:41.382Z,5.31
2018-02-17T09:28:09.314Z,5.22
2018-02-17T09:30:37.256Z,5.49
2018-02-17T09:33:05.181Z,5.43
2018-02-17T09:35:33.091Z,5.36
2018-02-17T09:38:01.121Z,5.34
2018-02-17T09:40:29.046Z,5.45
2018-02-17T09:42:56.987Z,5.38
2018-02-17T09:45:24.937Z,5.37
2018-02-17T09:47:52.896Z,5.39
2018-02-17T09:50:21.076Z,5.41
2018-02-17T09:52:48.998Z,5.41
2018-02-17T09:55:17.130Z,5.46
2018-02-17T09:57:45.067Z,5.62
2018-02-17T10:00:13.031Z,5.64
2018-02-17T10:02:40.955Z,5.72
2018-02-17T10:05:08.867Z,5.59
2018-02-17T10:07:36.833Z,5.55
2018-02-17T10:10:04.954Z,5.72
2018-02-17T10:12:33.054Z,5.77
2018-02-17T10:15:01.056Z,5.74
2018-02-17T10:17:28.958Z,5.82
2018-02-17T10:19:56.936Z,5.79
2018-02-17T10:22:24.866Z,5.70
2018-02-17T10:24:52.780Z,5.77
2018-02-17T10:27:20.719Z,5.84
2018-02-17T10:29:48.643Z,5.94
2018-02-17T10:32:16.588Z,5.90
2018-02-17T10:34:44.594Z,5.72
2018-02-17T10:37:12.571Z,5.94
2018-02-17T10:39:40.585Z,5.91
2018-02-17T10:42:08.491Z,5.93
2018-02-17T10:44:36.434Z,5.91
2018-02-17T10:47:04.405Z,6.05
2018-02-17T10:49:32.336Z,6.02
2018-02-17T10:52:00.250Z,6.04
2018-02-17T10:54:28.396Z,6.11
2018-02-17T10:56:56.345Z,6.22
2018-02-17T10:59:24.272Z,6.10
2018-02-17T11:01:52.317Z,6.06
2018-02-17T11:04:20.216Z,6.04
2018-02-17T11:06:48.164Z,6.29
2018-02-17T11:09:16.078Z,6.14
2018-02-17T11:11:44.017Z,6.16
2018-02-17T11:14:12.518Z,6.10
2018-02-17T11:16:40.464Z,6.38
2018-02-17T11:19:09.203Z,6.37
2018-02-17T11:21:37.124Z,6.24
2018-02-17T11:24:05.113Z,6.31
2018-02-17T11:26:33.081Z,6.13
2018-02-17T11:29:01.007Z,6.28
2018-02-17T11:31:28.936Z,6.25
2018-02-17T11:33:57.694Z,6.29
2018-02-17T11:36:25.585Z,6.31
2018-02-17T11:38:53.508Z,6.48
2018-02-17T11:41:21.450Z,6.33
2018-02-17T11:43:49.387Z,6.54
2018-02-17T11:46:17.454Z,6.39
2018-02-17T11:48:45.323Z,6.55
2018-02-17T11:51:13.272Z,6.35
2018-02-17T11:53:41.298Z,6.29
2018-02-17T11:56:09.207Z,6.41
2018-02-17T11:58:37.498Z,6.42
2018-02-17T12:01:05.407Z,6.48
2018-02-17T12:03:33.327Z,6.38
2018-02-17T12:06:01.230Z,6.21
2018-02-17T12:08:29.250Z,6.21
2018-02-17T12:10:57.162Z,6.36
2018-02-17T12:13:25.172Z,6.35
2018-02-17T12:15:53.127Z,6.37
2018-02-17T12:18:21.036Z,6.41
2018-02-17T12:20:49.070Z,6.30
2018-02-17T12:23:17.044Z,6.35
2018-02-17T12:25:45.066Z,6.28
2018-02-17T12:28:12.990Z,6.46
2018-02-17T12:30:41.020Z,6.57
2018-02-17T12:33:08.951Z,6.40
2018-02-17T12:35:37.088Z,6.29
2018-02-17T12:38:05.239Z,6.40
2018-02-17T12:40:33.147Z,6.40
2018-02-17T12:43:01.198Z,6.31
2018-02-17T12:45:29.191Z,6.45
2018-02-17T12:47:57.234Z,6.44
2018-02-17T12:50:25.147Z,6.25
2018-02-17T12:52:53.058Z,6.28
2018-02-17T12:55:20.998Z,6.26
2018-02-17T12:57:48.911Z,6.25
2018-02-17T13:00:16.838Z,6.37
2018-02-17T13:02:44.812Z,6.31
2018-02-17T13:05:13.002Z,6.46
2018-02-17T13:07:40.905Z,6.54
2018-02-17T13:10:08.827Z,6.31
2018-02-17T13:12:36.746Z,6.28
2018-02-17T13:15:04.752Z,6.39
2018-02-17T13:17:32.702Z,6.22
2018-02-17T13:20:00.615Z,6.20
2018-02-17T13:22:28.598Z,6.24
2018-02-17T13:24:56.563Z,6.24
2018-02-17T13:27:24.506Z,6.23
2018-02-17T13:29:52.475Z,6.23
2018-02-17T13:32:20.423Z,6.28
2018-02-17T13:34:48.420Z,6.28
2018-02-17T13:37:16.373Z,6.26
2018-02-17T13:39:44.284Z,6.23
2018-02-17T13:42:12.267Z,6.33
2018-02-17T13:44:40.418Z,6.21
2018-02-17T13:47:08.381Z,6.16
2018-02-17T13:49:36.314Z,6.23
2018-02-17T13:52:04.242Z,6.27
2018-02-17T13:54:32.705Z,6.11
2018-02-17T13:57:00.622Z,6.17
2018-02-17T13:59:28.594Z,6.22
2018-02-17T14:01:57.809Z,6.09
2018-02-17T14:04:25.791Z,6.02
2018-02-17T14:06:53.687Z,6.09
2018-02-17T14:09:21.616Z,6.12
2018-02-17T14:11:49.527Z,6.12
2018-02-17T14:14:17.459Z,6.07
2018-02-17T14:16:45.403Z,6.13
2018-02-17T14:19:13.398Z,6.04
2018-02-17T14:21:41.410Z,5.90
2018-02-17T14:24:09.352Z,5.98
2018-02-17T14:26:37.287Z,5.80
2018-02-17T14:29:05.259Z,5.85
2018-02-17T14:31:33.255Z,5.86
2018-02-17T14:34:01.487Z,6.00
2018-02-17T14:36:29.426Z,5.80
2018-02-17T14:38:57.630Z,5.84
2018-02-17T14:41:25.559Z,5.75
2018-02-17T14:43:53.476Z,5.77
2018-02-17T14:46:21.422Z,5.71
2018-02-17T14:48:49.336Z,5.69
2018-02-17T14:51:17.256Z,5.71
2018-02-17T14:53:45.277Z,5.69
2018-02-17T14:56:13.258Z,5.59
2018-02-17T14:58:41.256Z,5.60
2018-02-17T15:01:09.290Z,5.46
2018-02-17T15:03:37.257Z,5.60
2018-02-17T15:06:05.217Z,5.52
2018-02-17T15:08:33.136Z,5.47
2018-02-17T15:11:01.058Z,5.38
2018-02-17T15:13:28.971Z,5.39
2018-02-17T15:15:56.874Z,5.47
2018-02-17T15:18:24.827Z,5.45
2018-02-17T15:20:52.734Z,5.51
2018-02-17T15:23:20.698Z,5.50
2018-02-17T15:25:48.666Z,5.47
2018-02-17T15:28:16.553Z,5.43
2018-02-17T15:30:44.529Z,5.38
2018-02-17T15:33:12.434Z,5.46
2018-02-17T15:35:40.420Z,5.28
2018-02-17T15:38:08.378Z,5.24
2018-02-17T15:40:36.358Z,5.28
2018-02-17T15:43:04.271Z,5.25
2018-02-17T15:45:32.198Z,5.24
2018-02-17T15:48:00.191Z,5.39
2018-02-17T15:50:28.136Z,5.30
2018-02-17T15:52:56.075Z,5.17
2018-02-17T15:55:24.101Z,5.26
2018-02-17T15:57:52.162Z,5.38
2018-02-17T16:00:20.082Z,5.22
2018-02-17T16:02:48.087Z,5.15
2018-02-17T16:05:16.027Z,5.13
2018-02-17T16:07:43.958Z,5.18
2018-02-17T16:10:11.878Z,5.07
2018-02-17T16:12:39.812Z,5.12
2018-02-17T16:15:07.913Z,5.05
2018-02-17T16:17:35.846Z,4.95
2018-02-17T16:20:03.853Z,5.01
2018-02-17T16:22:31.783Z,4.98
2018-02-17T16:24:59.903Z,4.98
2018-02-17T16:27:27.906Z,5.05
2018-02-17T16:29:55.814Z,5.09
2018-02-17T16:32:23.727Z,4.96
2018-02-17T16:34:51.646Z,4.94
2018-02-17T16:37:19.583Z,4.93
2018-02-17T16:39:47.558Z,4.90
2018-02-17T16:42:15.512Z,4.94
2018-02-17T16:44:43.516Z,4.90
2018-02-17T16:47:11.434Z,4.89
2018-02-17T16:49:39.478Z,4.87
2018-02-17T16:52:07.476Z,4.75
2018-02-17T16:54:35.474Z,4.93
2018-02-17T16:57:03.457Z,4.86
2018-02-17T16:59:31.371Z,4.75
2018-02-17T17:01:59.288Z,4.65
2018-02-17T17:04:27.235Z,4.73
2018-02-17T17:06:55.183Z,4.83
2018-02-17T17:09:23.209Z,4.77
2018-02-17T17:11:51.128Z,4.71
2018-02-17T17:14:19.044Z,4.81
2018-02-17T17:16:47.142Z,4.76
2018-02-17T17:19:15.189Z,4.68
2018-02-17T17:21:43.158Z,4.71
2018-02-17T17:24:11.078Z,4.78
2018-02-17T17:26:39.133Z,4.73
2018-02-17T17:29:07.033Z,4.84
2018-02-17T17:31:34.946Z,4.78
2018-02-17T17:34:02.902Z,4.66
2018-02-17T17:36:30.810Z,4.68
2018-02-17T17:38:58.754Z,4.74
2018-02-17T17:41:26.737Z,4.77
2018-02-17T17:43:54.664Z,4.94
2018-02-17T17:46:22.600Z,4.97
2018-02-17T17:48:50.502Z,4.79
2018-02-17T17:51:18.501Z,5.15
2018-02-17T17:53:46.510Z,5.31
2018-02-17T17:56:14.740Z,5.36
2018-02-17T17:58:42.642Z,5.04
2018-02-17T18:01:10.590Z,4.93
2018-02-17T18:03:38.506Z,4.83
2018-02-17T18:06:06.469Z,4.86
2018-02-17T18:08:34.374Z,4.88
2018-02-17T18:11:02.317Z,4.79
2018-02-17T18:13:30.307Z,4.68
2018-02-17T18:15:58.246Z,4.71
2018-02-17T18:18:26.164Z,4.77
2018-02-17T18:20:54.113Z,4.68
2018-02-17T18:23:22.611Z,4.69
2018-02-17T18:25:50.525Z,4.65
2018-02-17T18:28:18.455Z,4.62
2018-02-17T18:30:46.371Z,4.71
2018-02-17T18:33:14.351Z,4.64
2018-02-17T18:35:42.277Z,4.59
2018-02-17T18:38:10.226Z,4.60
2018-02-17T18:40:38.605Z,4.64
2018-02-17T18:43:06.511Z,4.62
2018-02-17T18:45:34.491Z,4.54
2018-02-17T18:48:02.614Z,4.52
2018-02-17T18:50:30.642Z,4.72
2018-02-17T18:52:58.626Z,4.63
2018-02-17T18:55:26.599Z,4.56
2018-02-17T18:57:54.596Z,4.63
2018-02-17T19:00:22.567Z,4.63
2018-02-17T19:02:50.499Z,4.71
2018-02-17T19:05:18.484Z,4.66
2018-02-17T19:07:46.426Z,4.75
2018-02-17T19:10:14.347Z,4.75
2018-02-17T19:12:42.264Z,4.78
2018-02-17T19:15:10.171Z,4.79
2018-02-17T19:17:38.090Z,4.80
2018-02-17T19:20:06.076Z,4.73
2018-02-17T19:22:34.036Z,4.77
2018-02-17T19:25:01.994Z,4.79
2018-02-17T19:27:29.931Z,4.81
2018-02-17T19:29:57.976Z,4.82
2018-02-17T19:32:25.948Z,4.87
2018-02-17T19:34:53.914Z,5.83
2018-02-17T19:37:21.877Z,5.68
2018-02-17T19:39:50.034Z,5.38
2018-02-17T19:42:18.133Z,5.28
2018-02-17T19:44:46.074Z,5.17
2018-02-17T19:47:14.005Z,5.13
2018-02-17T19:49:41.933Z,5.04
2018-02-17T19:52:09.922Z,5.01
2018-02-17T19:54:37.818Z,4.96
2018-02-17T19:57:05.891Z,4.81
2018-02-17T19:59:34.466Z,4.86
2018-02-17T20:02:02.346Z,4.86
2018-02-17T20:04:30.286Z,4.95
2018-02-17T20:06:58.267Z,4.80
2018-02-17T20:09:26.364Z,4.84
2018-02-17T20:11:54.931Z,4.83
2018-02-17T20:14:22.859Z,4.86
2018-02-17T20:16:50.771Z,4.88
2018-02-17T20:19:18.697Z,4.91
2018-02-17T20:21:46.634Z,4.91
2018-02-17T20:24:14.650Z,4.81
2018-02-17T20:26:42.566Z,4.82
2018-02-17T20:29:10.536Z,4.86
2018-02-17T20:31:38.551Z,5.04
2018-02-17T20:34:06.526Z,4.78
2018-02-17T20:36:34.545Z,4.80
2018-02-17T20:39:02.486Z,4.82
2018-02-17T20:41:30.437Z,4.83
2018-02-17T20:43:58.484Z,4.87
2018-02-17T20:46:26.496Z,4.90
2018-02-17T20:48:54.496Z,4.91
2018-02-17T20:51:22.450Z,4.87
2018-02-17T20:53:50.453Z,4.89
2018-02-17T20:56:18.320Z,4.89
2018-02-17T20:58:46.339Z,5.10
2018-02-17T21:01:14.856Z,5.35
2018-02-17T21:03:42.779Z,5.53
2018-02-17T21:06:10.693Z,5.60
2018-02-17T21:08:38.691Z,5.65
2018-02-17T21:11:06.612Z,5.38
2018-02-17T21:13:34.731Z,5.32
2018-02-17T21:16:03.159Z,5.18
2018-02-17T21:18:31.102Z,5.27
2018-02-17T21:20:59.123Z,5.06
2018-02-17T21:23:27.031Z,4.98
2018-02-17T21:25:55.065Z,5.02
2018-02-17T21:28:23.065Z,5.08
2018-02-17T21:30:51.206Z,4.94
2018-02-17T21:33:19.822Z,4.96
2018-02-17T21:35:47.734Z,4.94
2018-02-17T21:38:15.658Z,4.94
2018-02-17T21:40:43.609Z,4.81
2018-02-17T21:43:11.622Z,4.79
2018-02-17T21:45:39.574Z,4.84
2018-02-17T21:48:07.520Z,4.83
2018-02-17T21:50:35.467Z,4.80
2018-02-17T21:53:03.375Z,4.82
2018-02-17T21:55:31.311Z,4.77
2018-02-17T21:57:59.311Z,4.76
2018-02-17T22:00:27.303Z,4.81
2018-02-17T22:02:56.028Z,4.77
2018-02-17T22:05:24.138Z,4.72
2018-02-17T22:07:52.216Z,4.89
2018-02-17T22:10:20.672Z,4.69
2018-02-17T22:12:48.589Z,4.62
2018-02-17T22:15:16.602Z,4.60
2018-02-17T22:17:44.519Z,4.65
2018-02-17T22:20:12.438Z,4.63
2018-02-17T22:22:40.354Z,4.61
2018-02-17T22:25:08.266Z,4.71
2018-02-17T22:27:36.364Z,4.74
2018-02-17T22:30:04.285Z,4.71
2018-02-17T22:32:32.248Z,4.73
2018-02-17T22:35:00.369Z,4.67
2018-02-17T22:37:28.383Z,4.81
2018-02-17T22:39:56.391Z,5.07
2018-02-17T22:42:24.344Z,5.20
2018-02-17T22:44:52.291Z,5.17
2018-02-17T22:47:20.244Z,4.92
2018-02-17T22:49:48.159Z,4.81
2018-02-17T22:52:16.073Z,4.73
2018-02-17T22:54:44.059Z,4.75
2018-02-17T22:57:11.973Z,4.64
2018-02-17T22:59:39.895Z,4.62
2018-02-17T23:02:07.944Z,4.58
2018-02-17T23:04:35.886Z,4.59
2018-02-17T23:07:03.989Z,4.61
2018-02-17T23:09:31.926Z,4.56
2018-02-17T23:11:59.860Z,4.51
2018-02-17T23:14:27.811Z,4.51
2018-02-17T23:16:55.746Z,4.57
2018-02-17T23:19:23.693Z,4.64
2018-02-17T23:21:51.613Z,4.61
2018-02-17T23:24:19.554Z,4.56
2018-02-17T23:26:47.595Z,4.58
2018-02-17T23:29:15.610Z,4.63
2018-02-17T23:31:43.543Z,4.62
2018-02-17T23:34:11.454Z,4.54
2018-02-17T23:36:39.432Z,4.52
2018-02-17T23:39:07.387Z,4.53
2018-02-17T23:41:35.434Z,4.48
2018-02-17T23:44:03.469Z,4.48
2018-02-17T23:46:31.379Z,4.50
2018-02-17T23:48:59.342Z,4.54
2018-02-17T23:51:27.887Z,4.47
2018-02-17T23:53:55.936Z,4.52
2018-02-17T23:56:24.006Z,4.62
2018-02-17T23:58:51.977Z,4.50
